Date,TemperatureHighF,TemperatureAvgF,TemperatureLowF,DewpointHighF,DewpointAvgF,DewpointLowF,HumidityHigh,HumidityAvg,HumidityLow,PressureMaxIn,PressureMinIn,WindSpeedMaxMPH,WindSpeedAvgMPH,GustSpeedMaxMPH,PrecipitationSumIn
2013-11-1,73.0,67.6,57.6,71.6,66.1,55.9,96,95,91,29.91,29.78,11,1,14,0.00
2013-11-2,74.3,60.8,51.6,57.2,50.6,44.1,95,72,43,30.11,29.88,13,1,16,0.00
2013-11-3,67.3,55.1,44.6,47.5,43.8,40.5,90,68,39,30.25,30.10,11,1,16,0.00
2013-11-4,71.8,59.1,46.9,54.0,47.9,41.7,83,68,50,30.32,30.23,14,5,16,0.00
2013-11-5,72.5,61.2,50.2,56.7,49.5,41.5,74,66,54,30.32,30.20,19,6,23,0.00
2013-11-6,77.2,66.7,57.4,66.4,60.5,49.8,91,81,67,30.22,30.09,14,3,15,0.00
2013-11-7,64.9,58.5,46.6,63.5,54.4,40.3,95,86,70,30.24,30.05,9,1,15,0.00
2013-11-8,63.9,51.1,41.5,42.1,38.3,34.7,80,63,38,30.31,30.20,13,2,14,0.00
2013-11-9,69.3,57.1,44.8,56.1,48.2,38.8,88,73,58,30.29,30.19,9,2,13,0.00
2013-11-10,74.1,61.3,53.4,57.9,52.7,46.0,92,75,49,30.28,30.18,8,0,9,0.00
2013-11-11,76.1,60.6,50.2,52.9,47.8,43.9,92,66,33,30.25,30.14,8,1,9,0.00
2013-11-12,72.9,54.8,37.8,52.2,43.6,24.1,95,68,45,30.42,30.15,14,1,19,0.00
2013-11-13,53.2,41.2,32.2,27.5,23.6,20.8,70,51,29,30.52,30.41,14,2,15,0.00
2013-11-14,64.9,49.0,33.4,46.6,36.3,23.2,82,62,49,30.44,30.22,11,2,15,0.00
2013-11-15,65.1,58.8,53.6,59.9,54.6,45.7,92,86,74,30.23,30.06,10,3,11,0.00
2013-11-16,74.7,65.7,57.0,65.5,61.3,55.4,96,86,71,30.16,30.04,10,2,11,0.00
2013-11-17,78.1,71.0,66.4,72.3,68.4,64.4,95,92,82,30.04,29.93,13,2,15,0.00
2013-11-18,81.9,70.5,55.2,71.2,59.9,39.4,96,72,45,30.06,29.94,9,1,10,0.00
2013-11-19,65.3,53.5,44.4,44.8,40.3,37.2,81,63,41,30.12,30.02,9,1,11,0.00
2013-11-20,64.8,55.2,45.3,53.4,46.1,38.5,79,72,64,30.22,30.07,15,4,18,0.00
2013-11-21,68.9,60.5,53.6,60.6,54.6,47.3,90,81,74,30.29,30.19,12,3,15,0.00
2013-11-22,72.0,63.4,56.8,65.5,60.5,55.2,96,91,79,30.28,30.14,9,2,9,0.00
2013-11-23,66.4,60.2,48.2,62.6,56.0,39.2,95,86,69,30.26,30.14,10,1,13,0.00
2013-11-24,54.3,45.3,38.7,39.2,30.3,24.6,73,57,34,30.40,30.25,10,2,13,0.00
2013-11-25,56.8,48.7,38.5,53.1,37.1,25.0,87,64,56,30.36,29.99,16,7,22,0.00
2013-11-26,66.4,54.3,45.9,64.9,52.9,44.4,96,95,87,29.99,29.66,20,4,21,0.00
2013-11-27,46.9,39.6,30.9,44.6,33.2,24.8,95,79,54,30.35,29.81,16,2,22,0.00
2013-11-28,51.3,37.4,27.0,31.5,26.1,21.6,82,66,36,30.49,30.35,8,1,8,0.72
2013-11-29,60.4,43.6,30.9,35.6,30.9,27.3,90,65,32,30.55,30.43,10,1,11,0.45
2013-11-30,65.5,49.8,34.5,45.7,38.9,30.7,87,68,39,30.48,30.28,8,2,10,0.01